sensor_id;sensor_type;location;lat;lon;timestamp;P1;durP1;ratioP1;P2;durP2;ratioP2
46000;SDS011;72226;48.272;11.180;2024-02-15T00:00:32;1.85;;;1.25;;
46000;SDS011;72226;48.272;11.180;2024-02-15T00:02:57;2.63;;;1.92;;
46000;SDS011;72226;48.272;11.180;2024-02-15T00:05:23;2.58;;;1.40;;
46000;SDS011;72226;48.272;11.180;2024-02-15T00:07:48;4.03;;;1.40;;
46000;SDS011;72226;48.272;11.180;2024-02-15T00:10:14;1.85;;;1.20;;
46000;SDS011;72226;48.272;11.180;2024-02-15T00:12:39;1.58;;;1.25;;
46000;SDS011;72226;48.272;11.180;2024-02-15T00:15:05;1.20;;;0.85;;
46000;SDS011;72226;48.272;11.180;2024-02-15T00:17:30;1.38;;;0.82;;
46000;SDS011;72226;48.272;11.180;2024-02-15T00:19:55;2.70;;;1.38;;
46000;SDS011;72226;48.272;11.180;2024-02-15T00:22:21;1.67;;;1.00;;
46000;SDS011;72226;48.272;11.180;2024-02-15T00:24:46;1.63;;;0.95;;
46000;SDS011;72226;48.272;11.180;2024-02-15T00:27:14;1.58;;;1.02;;
46000;SDS011;72226;48.272;11.180;2024-02-15T00:29:40;1.73;;;0.90;;
46000;SDS011;72226;48.272;11.180;2024-02-15T00:32:05;2.80;;;1.00;;
46000;SDS011;72226;48.272;11.180;2024-02-15T00:34:31;1.75;;;0.75;;
46000;SDS011;72226;48.272;11.180;2024-02-15T00:36:56;1.40;;;0.80;;
46000;SDS011;72226;48.272;11.180;2024-02-15T00:39:21;0.90;;;0.65;;
46000;SDS011;72226;48.272;11.180;2024-02-15T00:41:46;2.00;;;0.77;;
46000;SDS011;72226;48.272;11.180;2024-02-15T00:44:12;1.02;;;0.63;;
46000;SDS011;72226;48.272;11.180;2024-02-15T00:46:37;1.85;;;1.17;;
46000;SDS011;72226;48.272;11.180;2024-02-15T00:49:03;0.85;;;0.55;;
46000;SDS011;72226;48.272;11.180;2024-02-15T00:51:31;1.83;;;1.05;;
46000;SDS011;72226;48.272;11.180;2024-02-15T00:53:56;1.05;;;0.77;;
46000;SDS011;72226;48.272;11.180;2024-02-15T00:56:21;1.52;;;1.02;;
46000;SDS011;72226;48.272;11.180;2024-02-15T00:58:47;2.03;;;0.90;;
46000;SDS011;72226;48.272;11.180;2024-02-15T01:01:12;1.25;;;0.82;;
46000;SDS011;72226;48.272;11.180;2024-02-15T01:03:38;0.98;;;0.70;;
46000;SDS011;72226;48.272;11.180;2024-02-15T01:06:03;2.65;;;1.17;;
46000;SDS011;72226;48.272;11.180;2024-02-15T01:08:30;1.65;;;1.20;;
46000;SDS011;72226;48.272;11.180;2024-02-15T01:10:55;2.10;;;0.90;;
46000;SDS011;72226;48.272;11.180;2024-02-15T01:13:21;1.50;;;0.77;;
46000;SDS011;72226;48.272;11.180;2024-02-15T01:15:46;2.60;;;0.93;;
46000;SDS011;72226;48.272;11.180;2024-02-15T01:18:12;0.95;;;0.82;;
46000;SDS011;72226;48.272;11.180;2024-02-15T01:20:37;1.77;;;0.98;;
46000;SDS011;72226;48.272;11.180;2024-02-15T01:23:02;1.55;;;0.88;;
46000;SDS011;72226;48.272;11.180;2024-02-15T01:25:28;1.13;;;0.90;;
46000;SDS011;72226;48.272;11.180;2024-02-15T01:27:53;2.90;;;1.00;;
46000;SDS011;72226;48.272;11.180;2024-02-15T01:30:18;2.60;;;1.10;;
46000;SDS011;72226;48.272;11.180;2024-02-15T01:32:44;1.40;;;0.95;;
46000;SDS011;72226;48.272;11.180;2024-02-15T01:35:09;1.55;;;1.17;;
46000;SDS011;72226;48.272;11.180;2024-02-15T01:37:35;1.60;;;0.90;;
46000;SDS011;72226;48.272;11.180;2024-02-15T01:40:00;1.10;;;0.88;;
46000;SDS011;72226;48.272;11.180;2024-02-15T01:42:25;1.30;;;0.98;;
46000;SDS011;72226;48.272;11.180;2024-02-15T01:44:51;2.38;;;1.30;;
46000;SDS011;72226;48.272;11.180;2024-02-15T01:47:17;1.02;;;0.80;;
46000;SDS011;72226;48.272;11.180;2024-02-15T01:49:44;1.17;;;1.00;;
46000;SDS011;72226;48.272;11.180;2024-02-15T01:52:09;1.27;;;0.80;;
46000;SDS011;72226;48.272;11.180;2024-02-15T01:54:35;1.15;;;1.02;;
46000;SDS011;72226;48.272;11.180;2024-02-15T01:57:01;2.05;;;1.13;;
46000;SDS011;72226;48.272;11.180;2024-02-15T01:59:27;1.52;;;1.00;;
46000;SDS011;72226;48.272;11.180;2024-02-15T02:01:53;3.03;;;1.52;;
46000;SDS011;72226;48.272;11.180;2024-02-15T02:04:18;3.15;;;1.08;;
46000;SDS011;72226;48.272;11.180;2024-02-15T02:06:44;1.98;;;1.00;;
46000;SDS011;72226;48.272;11.180;2024-02-15T02:09:12;1.33;;;0.90;;
46000;SDS011;72226;48.272;11.180;2024-02-15T02:11:38;1.27;;;0.93;;
46000;SDS011;72226;48.272;11.180;2024-02-15T02:14:03;2.08;;;1.02;;
46000;SDS011;72226;48.272;11.180;2024-02-15T02:16:29;2.95;;;1.17;;
46000;SDS011;72226;48.272;11.180;2024-02-15T02:18:56;1.45;;;0.73;;
46000;SDS011;72226;48.272;11.180;2024-02-15T02:21:22;1.23;;;1.00;;
46000;SDS011;72226;48.272;11.180;2024-02-15T02:23:51;1.60;;;0.88;;
46000;SDS011;72226;48.272;11.180;2024-02-15T02:26:18;1.08;;;0.90;;
46000;SDS011;72226;48.272;11.180;2024-02-15T02:28:43;1.88;;;1.10;;
46000;SDS011;72226;48.272;11.180;2024-02-15T02:31:08;1.65;;;0.95;;
46000;SDS011;72226;48.272;11.180;2024-02-15T02:33:36;2.53;;;0.75;;
46000;SDS011;72226;48.272;11.180;2024-02-15T02:36:02;1.70;;;0.73;;
46000;SDS011;72226;48.272;11.180;2024-02-15T02:38:27;2.13;;;1.20;;
46000;SDS011;72226;48.272;11.180;2024-02-15T02:40:52;1.42;;;0.95;;
46000;SDS011;72226;48.272;11.180;2024-02-15T02:43:18;2.10;;;1.30;;
46000;SDS011;72226;48.272;11.180;2024-02-15T02:45:43;2.47;;;1.38;;
46000;SDS011;72226;48.272;11.180;2024-02-15T02:48:10;2.85;;;1.45;;
46000;SDS011;72226;48.272;11.180;2024-02-15T02:50:36;2.88;;;1.45;;
46000;SDS011;72226;48.272;11.180;2024-02-15T02:53:02;2.10;;;1.42;;
46000;SDS011;72226;48.272;11.180;2024-02-15T02:55:27;2.72;;;1.83;;
46000;SDS011;72226;48.272;11.180;2024-02-15T02:57:52;2.50;;;1.80;;
46000;SDS011;72226;48.272;11.180;2024-02-15T03:00:18;2.28;;;1.42;;
46000;SDS011;72226;48.272;11.180;2024-02-15T03:02:43;3.78;;;1.75;;
46000;SDS011;72226;48.272;11.180;2024-02-15T03:05:09;1.23;;;1.05;;
46000;SDS011;72226;48.272;11.180;2024-02-15T03:07:36;3.58;;;1.33;;
46000;SDS011;72226;48.272;11.180;2024-02-15T03:10:02;2.65;;;1.83;;
46000;SDS011;72226;48.272;11.180;2024-02-15T03:12:33;0.90;;;0.80;;
46000;SDS011;72226;48.272;11.180;2024-02-15T03:15:00;1.35;;;1.00;;
46000;SDS011;72226;48.272;11.180;2024-02-15T03:17:26;3.10;;;1.42;;
46000;SDS011;72226;48.272;11.180;2024-02-15T03:19:52;4.05;;;1.75;;
46000;SDS011;72226;48.272;11.180;2024-02-15T03:22:17;2.20;;;1.20;;
46000;SDS011;72226;48.272;11.180;2024-02-15T03:24:43;1.33;;;0.82;;
46000;SDS011;72226;48.272;11.180;2024-02-15T03:27:08;1.42;;;1.20;;
46000;SDS011;72226;48.272;11.180;2024-02-15T03:29:35;1.48;;;0.90;;
46000;SDS011;72226;48.272;11.180;2024-02-15T03:32:01;3.00;;;1.05;;
46000;SDS011;72226;48.272;11.180;2024-02-15T03:34:26;2.10;;;1.50;;
46000;SDS011;72226;48.272;11.180;2024-02-15T03:36:51;1.63;;;1.05;;
46000;SDS011;72226;48.272;11.180;2024-02-15T03:39:19;2.60;;;1.75;;
46000;SDS011;72226;48.272;11.180;2024-02-15T03:41:44;1.77;;;1.10;;
46000;SDS011;72226;48.272;11.180;2024-02-15T03:44:11;2.63;;;1.20;;
46000;SDS011;72226;48.272;11.180;2024-02-15T03:46:36;1.80;;;1.45;;
46000;SDS011;72226;48.272;11.180;2024-02-15T03:49:01;2.65;;;1.60;;
46000;SDS011;72226;48.272;11.180;2024-02-15T03:51:27;4.25;;;1.90;;
46000;SDS011;72226;48.272;11.180;2024-02-15T03:53:52;1.67;;;1.45;;
46000;SDS011;72226;48.272;11.180;2024-02-15T03:56:18;4.72;;;1.60;;
46000;SDS011;72226;48.272;11.180;2024-02-15T03:58:43;2.53;;;1.35;;
46000;SDS011;72226;48.272;11.180;2024-02-15T04:01:09;2.00;;;1.45;;
46000;SDS011;72226;48.272;11.180;2024-02-15T04:03:36;5.03;;;1.73;;
46000;SDS011;72226;48.272;11.180;2024-02-15T04:06:01;2.58;;;1.67;;
46000;SDS011;72226;48.272;11.180;2024-02-15T04:08:26;1.38;;;1.17;;
46000;SDS011;72226;48.272;11.180;2024-02-15T04:10:52;1.90;;;1.50;;
46000;SDS011;72226;48.272;11.180;2024-02-15T04:13:18;2.75;;;1.90;;
46000;SDS011;72226;48.272;11.180;2024-02-15T04:15:43;2.75;;;1.73;;
46000;SDS011;72226;48.272;11.180;2024-02-15T04:18:09;4.22;;;1.42;;
46000;SDS011;72226;48.272;11.180;2024-02-15T04:20:37;3.17;;;1.98;;
46000;SDS011;72226;48.272;11.180;2024-02-15T04:23:02;3.83;;;1.65;;
46000;SDS011;72226;48.272;11.180;2024-02-15T04:25:28;3.90;;;1.73;;
46000;SDS011;72226;48.272;11.180;2024-02-15T04:27:54;3.50;;;1.40;;
46000;SDS011;72226;48.272;11.180;2024-02-15T04:30:19;3.50;;;1.58;;
46000;SDS011;72226;48.272;11.180;2024-02-15T04:32:45;1.67;;;1.02;;
46000;SDS011;72226;48.272;11.180;2024-02-15T04:35:11;2.28;;;1.55;;
46000;SDS011;72226;48.272;11.180;2024-02-15T04:37:37;1.35;;;1.25;;
46000;SDS011;72226;48.272;11.180;2024-02-15T04:40:02;1.88;;;1.50;;
46000;SDS011;72226;48.272;11.180;2024-02-15T04:42:38;2.70;;;1.73;;
46000;SDS011;72226;48.272;11.180;2024-02-15T04:45:05;4.30;;;2.22;;
46000;SDS011;72226;48.272;11.180;2024-02-15T04:47:33;3.13;;;1.70;;
46000;SDS011;72226;48.272;11.180;2024-02-15T04:49:59;1.20;;;0.70;;
46000;SDS011;72226;48.272;11.180;2024-02-15T04:52:24;2.30;;;1.40;;
46000;SDS011;72226;48.272;11.180;2024-02-15T04:54:49;1.95;;;1.67;;
46000;SDS011;72226;48.272;11.180;2024-02-15T04:57:15;1.48;;;1.38;;
46000;SDS011;72226;48.272;11.180;2024-02-15T04:59:41;2.28;;;1.77;;
46000;SDS011;72226;48.272;11.180;2024-02-15T05:02:12;4.13;;;2.10;;
46000;SDS011;72226;48.272;11.180;2024-02-15T05:04:37;3.78;;;1.63;;
46000;SDS011;72226;48.272;11.180;2024-02-15T05:07:02;5.15;;;1.95;;
46000;SDS011;72226;48.272;11.180;2024-02-15T05:09:28;3.45;;;1.95;;
46000;SDS011;72226;48.272;11.180;2024-02-15T05:11:56;2.97;;;1.90;;
46000;SDS011;72226;48.272;11.180;2024-02-15T05:14:21;1.67;;;1.50;;
46000;SDS011;72226;48.272;11.180;2024-02-15T05:16:48;3.05;;;1.75;;
46000;SDS011;72226;48.272;11.180;2024-02-15T05:19:16;4.47;;;1.23;;
46000;SDS011;72226;48.272;11.180;2024-02-15T05:21:42;2.08;;;1.42;;
46000;SDS011;72226;48.272;11.180;2024-02-15T05:24:10;1.70;;;1.23;;
46000;SDS011;72226;48.272;11.180;2024-02-15T05:26:36;1.77;;;1.38;;
46000;SDS011;72226;48.272;11.180;2024-02-15T05:29:01;2.72;;;1.13;;
46000;SDS011;72226;48.272;11.180;2024-02-15T05:31:26;3.15;;;1.55;;
46000;SDS011;72226;48.272;11.180;2024-02-15T05:33:52;2.70;;;1.73;;
46000;SDS011;72226;48.272;11.180;2024-02-15T05:36:19;2.33;;;1.67;;
46000;SDS011;72226;48.272;11.180;2024-02-15T05:38:46;2.50;;;1.42;;
46000;SDS011;72226;48.272;11.180;2024-02-15T05:41:11;2.42;;;1.45;;
46000;SDS011;72226;48.272;11.180;2024-02-15T05:43:37;1.15;;;0.77;;
46000;SDS011;72226;48.272;11.180;2024-02-15T05:46:03;2.80;;;1.73;;
46000;SDS011;72226;48.272;11.180;2024-02-15T05:48:28;2.78;;;1.92;;
46000;SDS011;72226;48.272;11.180;2024-02-15T05:50:56;4.05;;;2.30;;
46000;SDS011;72226;48.272;11.180;2024-02-15T05:53:23;3.65;;;2.05;;
46000;SDS011;72226;48.272;11.180;2024-02-15T05:55:49;8.52;;;5.28;;
46000;SDS011;72226;48.272;11.180;2024-02-15T05:58:15;3.70;;;2.03;;
46000;SDS011;72226;48.272;11.180;2024-02-15T06:00:40;3.55;;;2.22;;
46000;SDS011;72226;48.272;11.180;2024-02-15T06:03:06;2.55;;;1.50;;
46000;SDS011;72226;48.272;11.180;2024-02-15T06:05:31;2.47;;;1.80;;
46000;SDS011;72226;48.272;11.180;2024-02-15T06:07:57;5.20;;;2.03;;
46000;SDS011;72226;48.272;11.180;2024-02-15T06:10:22;4.75;;;1.88;;
46000;SDS011;72226;48.272;11.180;2024-02-15T06:12:47;2.55;;;1.58;;
46000;SDS011;72226;48.272;11.180;2024-02-15T06:15:13;3.22;;;2.08;;
46000;SDS011;72226;48.272;11.180;2024-02-15T06:17:41;2.22;;;1.90;;
46000;SDS011;72226;48.272;11.180;2024-02-15T06:20:09;2.95;;;1.70;;
46000;SDS011;72226;48.272;11.180;2024-02-15T06:22:37;4.80;;;2.20;;
46000;SDS011;72226;48.272;11.180;2024-02-15T06:25:03;6.75;;;3.38;;
46000;SDS011;72226;48.272;11.180;2024-02-15T06:27:28;5.78;;;2.75;;
46000;SDS011;72226;48.272;11.180;2024-02-15T06:29:53;1.80;;;1.52;;
46000;SDS011;72226;48.272;11.180;2024-02-15T06:32:38;6.85;;;3.05;;
46000;SDS011;72226;48.272;11.180;2024-02-15T06:35:21;10.93;;;4.22;;
46000;SDS011;72226;48.272;11.180;2024-02-15T06:38:05;3.33;;;2.30;;
46000;SDS011;72226;48.272;11.180;2024-02-15T06:40:49;5.30;;;3.33;;
46000;SDS011;72226;48.272;11.180;2024-02-15T06:43:14;5.07;;;3.00;;
46000;SDS011;72226;48.272;11.180;2024-02-15T06:45:41;2.88;;;1.98;;
46000;SDS011;72226;48.272;11.180;2024-02-15T06:48:11;4.05;;;2.10;;
46000;SDS011;72226;48.272;11.180;2024-02-15T06:50:37;3.92;;;2.50;;
46000;SDS011;72226;48.272;11.180;2024-02-15T06:53:02;3.65;;;2.67;;
46000;SDS011;72226;48.272;11.180;2024-02-15T06:55:28;4.25;;;2.45;;
46000;SDS011;72226;48.272;11.180;2024-02-15T06:57:53;3.70;;;2.25;;
46000;SDS011;72226;48.272;11.180;2024-02-15T07:00:20;2.80;;;2.10;;
46000;SDS011;72226;48.272;11.180;2024-02-15T07:02:45;3.92;;;1.80;;
46000;SDS011;72226;48.272;11.180;2024-02-15T07:05:10;2.20;;;1.77;;
46000;SDS011;72226;48.272;11.180;2024-02-15T07:07:36;4.72;;;1.95;;
46000;SDS011;72226;48.272;11.180;2024-02-15T07:10:01;3.17;;;2.17;;
46000;SDS011;72226;48.272;11.180;2024-02-15T07:12:28;4.00;;;2.03;;
46000;SDS011;72226;48.272;11.180;2024-02-15T07:14:53;6.20;;;2.08;;
46000;SDS011;72226;48.272;11.180;2024-02-15T07:17:19;4.22;;;2.17;;
46000;SDS011;72226;48.272;11.180;2024-02-15T07:19:45;4.75;;;2.78;;
46000;SDS011;72226;48.272;11.180;2024-02-15T07:22:10;6.32;;;2.78;;
46000;SDS011;72226;48.272;11.180;2024-02-15T07:24:36;4.85;;;1.63;;
46000;SDS011;72226;48.272;11.180;2024-02-15T07:27:04;2.78;;;1.60;;
46000;SDS011;72226;48.272;11.180;2024-02-15T07:29:29;2.63;;;2.20;;
46000;SDS011;72226;48.272;11.180;2024-02-15T07:31:56;3.25;;;1.92;;
46000;SDS011;72226;48.272;11.180;2024-02-15T07:34:22;5.65;;;2.30;;
46000;SDS011;72226;48.272;11.180;2024-02-15T07:36:47;2.80;;;2.03;;
46000;SDS011;72226;48.272;11.180;2024-02-15T07:39:13;3.85;;;1.80;;
46000;SDS011;72226;48.272;11.180;2024-02-15T07:41:48;5.15;;;2.05;;
46000;SDS011;72226;48.272;11.180;2024-02-15T07:44:14;3.45;;;2.45;;
46000;SDS011;72226;48.272;11.180;2024-02-15T07:46:39;6.78;;;2.70;;
46000;SDS011;72226;48.272;11.180;2024-02-15T07:49:05;4.72;;;1.75;;
46000;SDS011;72226;48.272;11.180;2024-02-15T07:51:31;3.20;;;1.52;;
46000;SDS011;72226;48.272;11.180;2024-02-15T07:53:56;3.38;;;1.73;;
46000;SDS011;72226;48.272;11.180;2024-02-15T07:56:22;2.20;;;1.58;;
46000;SDS011;72226;48.272;11.180;2024-02-15T07:58:48;1.30;;;1.17;;
46000;SDS011;72226;48.272;11.180;2024-02-15T08:01:14;3.47;;;1.30;;
46000;SDS011;72226;48.272;11.180;2024-02-15T08:03:39;2.30;;;1.65;;
46000;SDS011;72226;48.272;11.180;2024-02-15T08:06:11;3.28;;;1.77;;
46000;SDS011;72226;48.272;11.180;2024-02-15T08:08:38;2.45;;;1.70;;
46000;SDS011;72226;48.272;11.180;2024-02-15T08:11:03;2.17;;;1.67;;
46000;SDS011;72226;48.272;11.180;2024-02-15T08:13:29;2.38;;;1.65;;
46000;SDS011;72226;48.272;11.180;2024-02-15T08:15:54;1.90;;;1.60;;
46000;SDS011;72226;48.272;11.180;2024-02-15T08:18:20;4.10;;;1.55;;
46000;SDS011;72226;48.272;11.180;2024-02-15T08:20:45;3.33;;;1.83;;
46000;SDS011;72226;48.272;11.180;2024-02-15T08:23:10;2.78;;;1.50;;
46000;SDS011;72226;48.272;11.180;2024-02-15T08:25:38;2.00;;;1.13;;
46000;SDS011;72226;48.272;11.180;2024-02-15T08:28:03;1.92;;;1.48;;
46000;SDS011;72226;48.272;11.180;2024-02-15T08:30:30;2.97;;;1.25;;
46000;SDS011;72226;48.272;11.180;2024-02-15T08:32:55;2.33;;;1.60;;
46000;SDS011;72226;48.272;11.180;2024-02-15T08:35:20;1.95;;;1.30;;
46000;SDS011;72226;48.272;11.180;2024-02-15T08:37:46;2.35;;;1.05;;
46000;SDS011;72226;48.272;11.180;2024-02-15T08:40:13;3.33;;;1.38;;
46000;SDS011;72226;48.272;11.180;2024-02-15T08:42:40;2.90;;;1.73;;
46000;SDS011;72226;48.272;11.180;2024-02-15T08:45:06;5.63;;;2.20;;
46000;SDS011;72226;48.272;11.180;2024-02-15T08:47:34;1.75;;;1.10;;
46000;SDS011;72226;48.272;11.180;2024-02-15T08:49:59;2.72;;;1.20;;
46000;SDS011;72226;48.272;11.180;2024-02-15T08:52:24;2.13;;;1.40;;
46000;SDS011;72226;48.272;11.180;2024-02-15T08:54:51;3.20;;;1.63;;
46000;SDS011;72226;48.272;11.180;2024-02-15T08:57:17;3.42;;;1.20;;
46000;SDS011;72226;48.272;11.180;2024-02-15T08:59:44;1.23;;;0.98;;
46000;SDS011;72226;48.272;11.180;2024-02-15T09:02:09;1.52;;;1.23;;
46000;SDS011;72226;48.272;11.180;2024-02-15T09:04:34;1.58;;;0.85;;
46000;SDS011;72226;48.272;11.180;2024-02-15T09:06:59;3.42;;;1.20;;
46000;SDS011;72226;48.272;11.180;2024-02-15T09:09:29;1.13;;;0.68;;
46000;SDS011;72226;48.272;11.180;2024-02-15T09:11:55;2.38;;;1.45;;
46000;SDS011;72226;48.272;11.180;2024-02-15T09:14:20;2.45;;;1.45;;
46000;SDS011;72226;48.272;11.180;2024-02-15T09:16:45;1.00;;;0.85;;
46000;SDS011;72226;48.272;11.180;2024-02-15T09:19:10;2.28;;;1.00;;
46000;SDS011;72226;48.272;11.180;2024-02-15T09:21:36;3.40;;;1.00;;
46000;SDS011;72226;48.272;11.180;2024-02-15T09:24:02;1.65;;;0.93;;
46000;SDS011;72226;48.272;11.180;2024-02-15T09:26:27;1.52;;;1.10;;
46000;SDS011;72226;48.272;11.180;2024-02-15T09:28:55;3.70;;;1.00;;
46000;SDS011;72226;48.272;11.180;2024-02-15T09:31:20;1.98;;;0.82;;
46000;SDS011;72226;48.272;11.180;2024-02-15T09:33:45;1.27;;;0.85;;
46000;SDS011;72226;48.272;11.180;2024-02-15T09:36:10;1.45;;;1.27;;
46000;SDS011;72226;48.272;11.180;2024-02-15T09:38:37;3.40;;;1.08;;
46000;SDS011;72226;48.272;11.180;2024-02-15T09:41:02;2.88;;;1.45;;
46000;SDS011;72226;48.272;11.180;2024-02-15T09:43:27;1.35;;;0.85;;
46000;SDS011;72226;48.272;11.180;2024-02-15T09:45:54;1.58;;;1.25;;
46000;SDS011;72226;48.272;11.180;2024-02-15T09:48:20;2.97;;;1.40;;
46000;SDS011;72226;48.272;11.180;2024-02-15T09:50:48;3.25;;;1.27;;
46000;SDS011;72226;48.272;11.180;2024-02-15T09:53:15;1.40;;;1.05;;
46000;SDS011;72226;48.272;11.180;2024-02-15T09:55:40;3.22;;;1.80;;
46000;SDS011;72226;48.272;11.180;2024-02-15T09:58:07;2.83;;;1.70;;
46000;SDS011;72226;48.272;11.180;2024-02-15T10:00:33;2.50;;;1.55;;
46000;SDS011;72226;48.272;11.180;2024-02-15T10:03:00;2.45;;;1.67;;
46000;SDS011;72226;48.272;11.180;2024-02-15T10:05:26;1.83;;;1.17;;
46000;SDS011;72226;48.272;11.180;2024-02-15T10:07:51;1.65;;;1.30;;
46000;SDS011;72226;48.272;11.180;2024-02-15T10:10:23;3.30;;;1.33;;
46000;SDS011;72226;48.272;11.180;2024-02-15T10:12:53;2.13;;;1.35;;
46000;SDS011;72226;48.272;11.180;2024-02-15T10:17:56;2.10;;;1.30;;
46000;SDS011;72226;48.272;11.180;2024-02-15T10:20:21;3.47;;;1.00;;
46000;SDS011;72226;48.272;11.180;2024-02-15T10:22:50;4.30;;;1.45;;
46000;SDS011;72226;48.272;11.180;2024-02-15T10:25:15;2.67;;;0.82;;
46000;SDS011;72226;48.272;11.180;2024-02-15T10:27:41;3.22;;;1.38;;
46000;SDS011;72226;48.272;11.180;2024-02-15T10:30:19;3.30;;;1.38;;
46000;SDS011;72226;48.272;11.180;2024-02-15T10:32:45;3.20;;;1.08;;
46000;SDS011;72226;48.272;11.180;2024-02-15T10:35:10;4.32;;;1.15;;
46000;SDS011;72226;48.272;11.180;2024-02-15T10:37:43;3.72;;;1.73;;
46000;SDS011;72226;48.272;11.180;2024-02-15T10:40:08;1.80;;;1.20;;
46000;SDS011;72226;48.272;11.180;2024-02-15T10:42:34;2.58;;;1.40;;
46000;SDS011;72226;48.272;11.180;2024-02-15T10:45:03;6.00;;;1.65;;
46000;SDS011;72226;48.272;11.180;2024-02-15T10:47:35;1.48;;;0.98;;
46000;SDS011;72226;48.272;11.180;2024-02-15T10:50:02;6.07;;;1.45;;
46000;SDS011;72226;48.272;11.180;2024-02-15T10:52:28;1.08;;;0.95;;
46000;SDS011;72226;48.272;11.180;2024-02-15T10:55:03;2.75;;;0.85;;
46000;SDS011;72226;48.272;11.180;2024-02-15T10:57:31;1.17;;;0.85;;
46000;SDS011;72226;48.272;11.180;2024-02-15T10:59:59;1.48;;;0.98;;
46000;SDS011;72226;48.272;11.180;2024-02-15T11:02:30;1.13;;;0.60;;
46000;SDS011;72226;48.272;11.180;2024-02-15T11:04:58;1.33;;;0.60;;
46000;SDS011;72226;48.272;11.180;2024-02-15T11:07:27;1.60;;;0.68;;
46000;SDS011;72226;48.272;11.180;2024-02-15T11:09:53;1.05;;;0.55;;
46000;SDS011;72226;48.272;11.180;2024-02-15T11:12:21;1.40;;;0.88;;
46000;SDS011;72226;48.272;11.180;2024-02-15T11:14:47;1.25;;;0.73;;
46000;SDS011;72226;48.272;11.180;2024-02-15T11:17:44;3.00;;;1.23;;
46000;SDS011;72226;48.272;11.180;2024-02-15T11:19:59;2.05;;;1.15;;
46000;SDS011;72226;48.272;11.180;2024-02-15T11:22:24;1.45;;;0.70;;
46000;SDS011;72226;48.272;11.180;2024-02-15T11:24:51;1.88;;;0.68;;
46000;SDS011;72226;48.272;11.180;2024-02-15T11:27:29;4.28;;;1.13;;
46000;SDS011;72226;48.272;11.180;2024-02-15T11:29:55;1.30;;;0.60;;
46000;SDS011;72226;48.272;11.180;2024-02-15T11:35:05;0.50;;;0.40;;
46000;SDS011;72226;48.272;11.180;2024-02-15T11:40:16;3.03;;;0.73;;
46000;SDS011;72226;48.272;11.180;2024-02-15T11:42:42;1.00;;;0.40;;
46000;SDS011;72226;48.272;11.180;2024-02-15T11:45:08;2.78;;;0.70;;
46000;SDS011;72226;48.272;11.180;2024-02-15T11:47:36;2.25;;;1.20;;
46000;SDS011;72226;48.272;11.180;2024-02-15T11:50:02;1.88;;;1.20;;
46000;SDS011;72226;48.272;11.180;2024-02-15T11:52:28;1.10;;;0.63;;
46000;SDS011;72226;48.272;11.180;2024-02-15T11:54:53;1.15;;;0.65;;
46000;SDS011;72226;48.272;11.180;2024-02-15T11:57:18;0.68;;;0.30;;
46000;SDS011;72226;48.272;11.180;2024-02-15T12:00:01;1.63;;;0.75;;
46000;SDS011;72226;48.272;11.180;2024-02-15T12:02:59;2.40;;;0.60;;
46000;SDS011;72226;48.272;11.180;2024-02-15T12:05:43;1.45;;;0.85;;
46000;SDS011;72226;48.272;11.180;2024-02-15T12:08:27;2.33;;;1.25;;
46000;SDS011;72226;48.272;11.180;2024-02-15T12:11:13;2.15;;;0.88;;
46000;SDS011;72226;48.272;11.180;2024-02-15T12:13:57;1.58;;;0.65;;
46000;SDS011;72226;48.272;11.180;2024-02-15T12:16:40;2.22;;;0.55;;
46000;SDS011;72226;48.272;11.180;2024-02-15T12:19:24;3.95;;;1.17;;
46000;SDS011;72226;48.272;11.180;2024-02-15T12:21:50;2.53;;;1.13;;
46000;SDS011;72226;48.272;11.180;2024-02-15T12:24:15;0.85;;;0.80;;
46000;SDS011;72226;48.272;11.180;2024-02-15T12:26:42;1.25;;;0.93;;
46000;SDS011;72226;48.272;11.180;2024-02-15T12:29:07;0.88;;;0.75;;
46000;SDS011;72226;48.272;11.180;2024-02-15T12:31:35;3.92;;;1.08;;
46000;SDS011;72226;48.272;11.180;2024-02-15T12:34:03;5.07;;;1.40;;
46000;SDS011;72226;48.272;11.180;2024-02-15T12:36:32;4.65;;;1.40;;
46000;SDS011;72226;48.272;11.180;2024-02-15T12:39:01;3.42;;;1.00;;
46000;SDS011;72226;48.272;11.180;2024-02-15T12:41:27;0.88;;;0.70;;
46000;SDS011;72226;48.272;11.180;2024-02-15T12:43:52;1.50;;;0.88;;
46000;SDS011;72226;48.272;11.180;2024-02-15T12:46:18;1.38;;;0.68;;
46000;SDS011;72226;48.272;11.180;2024-02-15T12:48:44;1.75;;;0.70;;
46000;SDS011;72226;48.272;11.180;2024-02-15T12:51:13;1.23;;;0.90;;
46000;SDS011;72226;48.272;11.180;2024-02-15T12:53:38;1.90;;;0.70;;
46000;SDS011;72226;48.272;11.180;2024-02-15T12:56:03;1.73;;;0.80;;
46000;SDS011;72226;48.272;11.180;2024-02-15T12:58:31;2.10;;;0.82;;
46000;SDS011;72226;48.272;11.180;2024-02-15T13:00:56;1.88;;;0.90;;
46000;SDS011;72226;48.272;11.180;2024-02-15T13:03:23;1.38;;;0.90;;
46000;SDS011;72226;48.272;11.180;2024-02-15T13:05:49;5.78;;;1.20;;
46000;SDS011;72226;48.272;11.180;2024-02-15T13:08:14;6.25;;;1.27;;
46000;SDS011;72226;48.272;11.180;2024-02-15T13:10:40;1.55;;;0.90;;
46000;SDS011;72226;48.272;11.180;2024-02-15T13:13:05;1.10;;;0.80;;
46000;SDS011;72226;48.272;11.180;2024-02-15T13:15:31;2.70;;;0.93;;
46000;SDS011;72226;48.272;11.180;2024-02-15T13:17:59;0.60;;;0.40;;
46000;SDS011;72226;48.272;11.180;2024-02-15T13:20:25;2.80;;;0.55;;
46000;SDS011;72226;48.272;11.180;2024-02-15T13:23:01;1.77;;;0.80;;
46000;SDS011;72226;48.272;11.180;2024-02-15T13:25:28;2.03;;;1.00;;
46000;SDS011;72226;48.272;11.180;2024-02-15T13:27:54;1.48;;;0.70;;
46000;SDS011;72226;48.272;11.180;2024-02-15T13:30:20;0.73;;;0.40;;
46000;SDS011;72226;48.272;11.180;2024-02-15T13:32:48;1.05;;;0.47;;
46000;SDS011;72226;48.272;11.180;2024-02-15T13:35:13;1.60;;;0.63;;
46000;SDS011;72226;48.272;11.180;2024-02-15T13:37:42;2.20;;;0.40;;
46000;SDS011;72226;48.272;11.180;2024-02-15T13:40:11;0.98;;;0.60;;
46000;SDS011;72226;48.272;11.180;2024-02-15T13:45:12;1.15;;;0.50;;
46000;SDS011;72226;48.272;11.180;2024-02-15T13:47:38;1.23;;;0.60;;
46000;SDS011;72226;48.272;11.180;2024-02-15T13:50:04;1.88;;;0.40;;
46000;SDS011;72226;48.272;11.180;2024-02-15T13:52:30;3.55;;;0.43;;
46000;SDS011;72226;48.272;11.180;2024-02-15T13:54:56;2.10;;;0.50;;
46000;SDS011;72226;48.272;11.180;2024-02-15T13:57:21;1.20;;;0.40;;
46000;SDS011;72226;48.272;11.180;2024-02-15T13:59:46;1.05;;;0.70;;
46000;SDS011;72226;48.272;11.180;2024-02-15T14:02:11;1.02;;;0.50;;
46000;SDS011;72226;48.272;11.180;2024-02-15T14:04:37;0.88;;;0.57;;
46000;SDS011;72226;48.272;11.180;2024-02-15T14:07:03;0.85;;;0.40;;
46000;SDS011;72226;48.272;11.180;2024-02-15T14:09:28;3.38;;;0.98;;
46000;SDS011;72226;48.272;11.180;2024-02-15T14:11:55;1.30;;;0.60;;
46000;SDS011;72226;48.272;11.180;2024-02-15T14:14:21;2.17;;;0.45;;
46000;SDS011;72226;48.272;11.180;2024-02-15T14:16:47;1.30;;;0.40;;
46000;SDS011;72226;48.272;11.180;2024-02-15T14:19:12;0.50;;;0.40;;
46000;SDS011;72226;48.272;11.180;2024-02-15T14:21:42;2.03;;;0.50;;
46000;SDS011;72226;48.272;11.180;2024-02-15T14:24:10;1.55;;;0.68;;
46000;SDS011;72226;48.272;11.180;2024-02-15T14:26:35;1.38;;;0.57;;
46000;SDS011;72226;48.272;11.180;2024-02-15T14:29:00;1.33;;;0.50;;
46000;SDS011;72226;48.272;11.180;2024-02-15T14:31:26;2.33;;;0.40;;
46000;SDS011;72226;48.272;11.180;2024-02-15T14:34:10;1.65;;;0.47;;
46000;SDS011;72226;48.272;11.180;2024-02-15T14:36:35;1.50;;;0.57;;
46000;SDS011;72226;48.272;11.180;2024-02-15T14:39:01;2.60;;;0.40;;
46000;SDS011;72226;48.272;11.180;2024-02-15T14:41:26;3.15;;;0.52;;